Time;durP1;ratioP1;P1;durP2;ratioP2;P2;SDS_P1;SDS_P2;PMS_P1;PMS_P2;Temp;Humidity;BMP_temperature;BMP_pressure;BME280_temperature;BME280_humidity;BME280_pressure;Samples;Min_cycle;Max_cycle;Signal;HPM_P1;HPM_P2
2022/10/04 00:00:30;;;;;;;201.38;18.38;;;6.90;99.90;;;;;;6248234;22;20180;-82
2022/10/04 00:03:06;;;;;;;387.30;26.13;;;6.80;99.90;;;;;;6225465;23;20134;-82
2022/10/04 00:05:32;;;;;;;102.35;14.38;;;6.80;99.90;;;;;;6225007;23;20192;-81
2022/10/04 00:08:05;;;;;;;83.43;9.88;;;7.00;99.90;;;;;;6223064;23;20627;-82
2022/10/04 00:10:32;;;;;;;57.60;10.20;;;6.90;99.90;;;;;;6225102;23;20133;-82
2022/10/04 00:13:02;;;;;;;50.70;10.65;;;7.00;99.90;;;;;;6247441;23;20149;-83
2022/10/04 00:15:38;;;;;;;254.40;17.98;;;6.80;99.90;;;;;;6223400;23;20142;-83
2022/10/04 00:18:10;;;;;;;383.30;25.55;;;6.80;99.90;;;;;;6247123;23;20156;-83
2022/10/04 00:20:52;;;;;;;116.75;12.88;;;6.70;99.90;;;;;;6222619;23;20184;-83
2022/10/04 00:23:23;;;;;;;211.15;16.50;;;7.00;99.90;;;;;;6247410;23;20604;-83
2022/10/04 00:25:51;;;;;;;152.55;12.63;;;6.90;99.90;;;;;;6246749;23;20156;-83
2022/10/04 00:28:19;;;;;;;124.82;13.20;;;7.00;99.90;;;;;;6223036;23;20448;-83
2022/10/04 00:31:08;;;;;;;117.13;11.27;;;6.90;99.90;;;;;;6245677;23;20156;-83
2022/10/04 00:34:00;;;;;;;172.98;14.63;;;6.60;99.90;;;;;;6221455;23;20142;-83
2022/10/04 00:36:58;;;;;;;163.57;13.98;;;6.80;99.90;;;;;;6164565;23;20207;-83
2022/10/04 00:39:37;;;;;;;107.22;9.75;;;6.50;99.90;;;;;;6156363;23;20179;-83
2022/10/04 00:42:16;;;;;;;114.07;11.13;;;6.50;99.90;;;;;;6220973;23;20180;-84
2022/10/04 00:44:52;;;;;;;71.68;9.82;;;6.10;99.90;;;;;;6220013;23;20150;-83
2022/10/04 00:47:42;;;;;;;89.95;12.40;;;6.10;99.90;;;;;;6245503;23;20168;-84
2022/10/04 00:50:50;;;;;;;51.03;8.45;;;6.20;99.90;;;;;;6243760;22;20169;-83
2022/10/04 00:53:48;;;;;;;27.42;7.50;;;6.00;99.90;;;;;;6215495;23;20236;-83
2022/10/04 00:56:22;;;;;;;17.23;8.95;;;6.20;99.90;;;;;;6221550;23;20129;-83
2022/10/04 00:58:55;;;;;;;26.90;7.57;;;6.00;99.90;;;;;;6244656;22;20231;-83
2022/10/04 01:01:24;;;;;;;17.95;7.93;;;6.10;99.90;;;;;;6221374;23;20665;-83
2022/10/04 01:03:52;;;;;;;15.23;7.88;;;6.20;99.90;;;;;;6221255;23;20226;-83
2022/10/04 01:06:20;;;;;;;17.33;6.78;;;6.20;99.90;;;;;;6244632;23;20160;-83
2022/10/04 01:08:52;;;;;;;12.63;7.00;;;6.10;99.90;;;;;;6220418;23;20200;-84
2022/10/04 01:11:23;;;;;;;11.35;6.55;;;6.00;99.90;;;;;;6221415;23;20516;-83
2022/10/04 01:14:10;;;;;;;12.75;6.82;;;6.10;99.90;;;;;;6220853;23;20134;-84
2022/10/04 01:16:37;;;;;;;10.15;7.20;;;6.10;99.90;;;;;;6220739;23;20137;-84
2022/10/04 01:19:20;;;;;;;9.80;6.50;;;5.90;99.90;;;;;;6221433;23;20177;-83
2022/10/04 01:21:56;;;;;;;10.48;6.53;;;6.00;99.90;;;;;;6244683;23;20241;-84
2022/10/04 01:24:23;;;;;;;26.40;7.93;;;;;;;;;;6242872;23;20188;-83
2022/10/04 01:26:48;;;;;;;101.18;12.45;;;5.80;99.90;;;;;;6220569;23;20136;-83
2022/10/04 01:29:24;;;;;;;72.30;13.00;;;5.70;99.90;;;;;;6218334;23;20176;-83
2022/10/04 01:31:53;;;;;;;104.15;12.93;;;5.60;99.90;;;;;;6245144;23;20138;-83
2022/10/04 01:34:21;;;;;;;158.30;14.48;;;5.80;99.90;;;;;;6243879;23;20149;-83
2022/10/04 01:36:50;;;;;;;72.53;10.13;;;5.40;99.90;;;;;;6219255;23;20170;-82
2022/10/04 01:39:17;;;;;;;63.95;9.70;;;5.50;99.90;;;;;;6245043;22;20196;-82
2022/10/04 01:42:04;;;;;;;161.73;18.80;;;5.50;99.90;;;;;;6219516;23;20161;-82
2022/10/04 01:44:43;;;;;;;16.73;7.50;;;5.30;99.90;;;;;;6244827;23;20142;-83
2022/10/04 01:47:21;;;;;;;23.33;9.75;;;5.60;99.90;;;;;;6244422;23;20169;-83
2022/10/04 01:49:48;;;;;;;13.15;7.38;;;5.60;99.90;;;;;;6221347;23;20185;-83
2022/10/04 01:52:21;;;;;;;15.18;8.25;;;5.70;99.90;;;;;;6220242;23;20334;-82
2022/10/04 01:54:59;;;;;;;14.35;8.40;;;5.80;99.90;;;;;;6219013;23;20142;-83
2022/10/04 01:57:32;;;;;;;31.20;8.75;;;5.80;99.90;;;;;;6244411;23;20516;-83
2022/10/04 02:00:07;;;;;;;69.18;11.60;;;5.70;99.90;;;;;;6220004;23;20212;-83
2022/10/04 02:02:42;;;;;;;14.48;8.50;;;5.70;99.90;;;;;;6216864;23;20197;-83
2022/10/04 02:05:11;;;;;;;11.07;9.05;;;5.50;99.90;;;;;;6220011;23;20149;-83
2022/10/04 02:07:39;;;;;;;17.13;9.23;;;5.40;99.90;;;;;;6218250;23;20184;-82
2022/10/04 02:10:14;;;;;;;18.58;10.32;;;5.40;99.90;;;;;;6219687;23;20185;-83
2022/10/04 02:12:46;;;;;;;13.60;9.02;;;5.40;99.90;;;;;;6218766;23;20145;-83
2022/10/04 02:15:13;;;;;;;18.50;10.38;;;5.40;99.90;;;;;;6218373;23;20130;-83
2022/10/04 02:17:41;;;;;;;15.60;8.60;;;5.50;99.90;;;;;;6217874;23;20228;-84
2022/10/04 02:20:17;;;;;;;23.38;9.65;;;5.40;99.90;;;;;;6217910;23;20773;-84
2022/10/04 02:22:44;;;;;;;22.10;10.15;;;5.50;99.90;;;;;;6217391;23;20177;-83
2022/10/04 02:25:13;;;;;;;97.97;14.90;;;5.50;99.90;;;;;;6219918;23;20171;-83
2022/10/04 02:27:39;;;;;;;206.77;19.75;;;5.60;99.90;;;;;;6219196;23;20172;-83
2022/10/04 02:30:10;;;;;;;37.13;10.63;;;5.40;99.90;;;;;;6218702;23;20188;-83
2022/10/04 02:32:56;;;;;;;115.80;17.40;;;5.40;99.90;;;;;;6217378;23;20141;-83
2022/10/04 02:35:23;;;;;;;20.77;9.70;;;5.20;99.90;;;;;;6219458;23;20137;-83
2022/10/04 02:37:57;;;;;;;15.98;9.48;;;5.50;99.90;;;;;;6242876;23;20176;-83
2022/10/04 02:40:29;;;;;;;18.48;8.02;;;5.20;99.90;;;;;;6243075;22;20195;-83
2022/10/04 02:43:11;;;;;;;14.27;8.20;;;5.20;99.90;;;;;;6219244;23;20553;-82
2022/10/04 02:45:40;;;;;;;12.80;8.15;;;5.10;99.90;;;;;;6219545;23;20603;-83
2022/10/04 02:48:32;;;;;;;18.52;9.10;;;5.10;99.90;;;;;;6217989;23;20173;-83
2022/10/04 02:51:13;;;;;;;12.73;8.18;;;5.10;99.90;;;;;;6240685;23;20172;-83
2022/10/04 02:54:00;;;;;;;17.38;9.38;;;5.10;99.90;;;;;;6240950;23;20146;-83
2022/10/04 02:56:26;;;;;;;19.38;9.40;;;;;;;;;;6219101;23;20132;-83
2022/10/04 02:58:53;;;;;;;24.88;11.00;;;4.90;99.90;;;;;;6217666;23;20642;-83
2022/10/04 03:01:27;;;;;;;23.65;12.27;;;5.30;99.90;;;;;;6241269;23;20533;-83
2022/10/04 03:03:56;;;;;;;28.48;11.70;;;5.40;99.90;;;;;;6241030;23;20500;-83
2022/10/04 03:06:25;;;;;;;21.17;11.65;;;5.50;99.90;;;;;;6217389;23;20235;-83
2022/10/04 03:08:57;;;;;;;18.42;9.75;;;5.40;99.90;;;;;;6239535;22;20268;-83
2022/10/04 03:11:27;;;;;;;25.75;12.23;;;5.50;99.90;;;;;;6216504;23;20130;-83
2022/10/04 03:13:55;;;;;;;21.35;11.43;;;5.70;99.90;;;;;;6217013;23;20206;-82
2022/10/04 03:16:22;;;;;;;27.77;11.45;;;;;;;;;;6218417;23;20142;-83
2022/10/04 03:18:50;;;;;;;26.38;13.07;;;5.80;99.90;;;;;;6219328;23;20480;-84
2022/10/04 03:21:19;;;;;;;20.02;11.80;;;5.80;99.90;;;;;;6242688;23;20188;-83
2022/10/04 03:23:46;;;;;;;20.38;10.90;;;5.70;99.90;;;;;;6219085;23;20154;-82
2022/10/04 03:26:39;;;;;;;29.45;12.32;;;5.60;99.90;;;;;;6219690;23;20222;-83
2022/10/04 03:29:10;;;;;;;72.63;13.13;;;5.40;99.90;;;;;;6220173;23;20303;-83
2022/10/04 03:31:47;;;;;;;536.28;45.80;;;5.40;99.90;;;;;;6220942;23;20130;-82
2022/10/04 03:34:19;;;;;;;459.42;34.40;;;5.00;99.90;;;;;;6219246;23;20167;-83
2022/10/04 03:36:48;;;;;;;369.55;30.63;;;5.20;99.90;;;;;;6218984;23;20144;-83
2022/10/04 03:39:19;;;;;;;274.38;17.55;;;5.20;99.90;;;;;;6242695;22;20181;-83
2022/10/04 03:41:46;;;;;;;238.43;18.63;;;5.00;99.90;;;;;;6220092;23;20191;-83
2022/10/04 03:44:17;;;;;;;136.45;13.15;;;4.80;99.90;;;;;;6219737;23;20145;-83
2022/10/04 03:46:44;;;;;;;94.03;12.25;;;5.00;99.90;;;;;;6242509;23;20207;-83
2022/10/04 03:49:14;;;;;;;81.60;13.63;;;4.90;99.90;;;;;;6219544;23;20184;-84
2022/10/04 03:51:46;;;;;;;69.85;11.45;;;4.80;99.90;;;;;;6243277;23;20192;-83
2022/10/04 03:54:17;;;;;;;21.60;10.07;;;5.20;99.90;;;;;;6222583;23;20137;-83
2022/10/04 03:56:44;;;;;;;36.30;11.38;;;4.90;99.90;;;;;;6221221;23;20133;-83
2022/10/04 03:59:15;;;;;;;18.20;10.85;;;5.00;99.90;;;;;;6243580;22;20176;-83
2022/10/04 04:02:11;;;;;;;21.50;10.75;;;4.90;99.90;;;;;;6220243;23;20161;-82
2022/10/04 04:04:55;;;;;;;16.67;9.70;;;4.90;99.90;;;;;;6219665;23;20133;-84
2022/10/04 04:07:28;;;;;;;21.17;11.80;;;5.10;99.90;;;;;;6243787;23;20177;-83
2022/10/04 04:10:11;;;;;;;32.40;12.23;;;5.00;99.90;;;;;;6221618;23;20268;-83
2022/10/04 04:12:42;;;;;;;25.80;12.50;;;5.30;99.90;;;;;;6218752;23;20408;-82
2022/10/04 04:15:12;;;;;;;27.95;13.23;;;5.20;99.90;;;;;;6220268;23;20470;-82
2022/10/04 04:17:51;;;;;;;22.70;12.85;;;5.40;99.90;;;;;;6218971;23;20475;-82
2022/10/04 04:20:36;;;;;;;21.30;12.10;;;5.50;99.90;;;;;;6244228;22;20184;-82
2022/10/04 04:23:11;;;;;;;30.33;11.32;;;5.20;99.90;;;;;;6216699;23;20141;-84
2022/10/04 04:25:40;;;;;;;28.98;12.02;;;5.30;99.90;;;;;;6216563;23;20184;-84
2022/10/04 04:28:30;;;;;;;24.15;11.65;;;5.40;99.90;;;;;;6218699;23;20169;-83
2022/10/04 04:31:06;;;;;;;20.45;10.40;;;5.40;99.90;;;;;;6218745;23;20456;-83
2022/10/04 04:33:47;;;;;;;48.00;11.88;;;5.30;99.90;;;;;;6221658;23;20133;-84
2022/10/04 04:36:14;;;;;;;158.38;17.98;;;5.10;99.90;;;;;;6247322;23;20439;-82
2022/10/04 04:41:26;;;;;;;72.18;12.60;;;4.80;99.90;;;;;;6226367;23;20148;-81
2022/10/04 04:43:52;;;;;;;291.58;23.20;;;;;;;;;;6226236;23;20165;-82
2022/10/04 04:46:20;;;;;;;234.83;18.23;;;;;;;;;;6224024;23;20133;-81
2022/10/04 04:48:48;;;;;;;106.10;14.60;;;4.70;99.90;;;;;;6223151;23;20679;-82
2022/10/04 04:51:20;;;;;;;82.05;15.35;;;4.80;99.90;;;;;;6221639;23;20148;-83
2022/10/04 04:53:47;;;;;;;41.70;13.90;;;4.70;99.90;;;;;;6221052;23;20188;-83
2022/10/04 04:56:22;;;;;;;164.63;23.98;;;4.60;99.90;;;;;;6222392;23;20658;-82
2022/10/04 04:58:50;;;;;;;30.98;12.70;;;4.70;99.90;;;;;;6222283;23;20219;-82
2022/10/04 05:01:33;;;;;;;39.20;12.95;;;5.00;99.90;;;;;;6222741;23;20133;-81
2022/10/04 05:04:05;;;;;;;22.23;10.95;;;4.90;99.90;;;;;;6223707;23;20741;-82
2022/10/04 05:06:32;;;;;;;31.33;11.80;;;4.90;99.90;;;;;;6222462;23;20147;-82
2022/10/04 05:08:58;;;;;;;40.00;11.35;;;;;;;;;;6221773;23;20247;-81
2022/10/04 05:11:30;;;;;;;30.25;10.63;;;5.00;99.90;;;;;;6223376;23;20149;-81
2022/10/04 05:14:14;;;;;;;16.90;9.82;;;4.70;99.90;;;;;;6223125;23;20156;-81
2022/10/04 05:16:52;;;;;;;18.30;10.23;;;4.90;99.90;;;;;;6222798;23;20130;-81
2022/10/04 05:19:23;;;;;;;16.40;10.68;;;5.10;99.90;;;;;;6221531;23;20169;-81
2022/10/04 05:21:52;;;;;;;17.60;9.25;;;4.90;99.90;;;;;;6220835;23;20140;-81
2022/10/04 05:24:29;;;;;;;24.27;11.40;;;5.00;99.90;;;;;;6245303;23;20228;-80
2022/10/04 05:27:08;;;;;;;20.77;10.18;;;5.10;99.90;;;;;;6222094;23;20189;-82
2022/10/04 05:29:38;;;;;;;21.88;12.40;;;4.80;99.90;;;;;;6221201;23;20167;-81
2022/10/04 05:32:19;;;;;;;22.92;12.88;;;5.30;99.90;;;;;;6243531;23;20175;-81
2022/10/04 05:34:48;;;;;;;21.40;10.65;;;5.30;99.90;;;;;;6221456;23;20130;-81
2022/10/04 05:37:46;;;;;;;22.13;11.63;;;5.30;99.90;;;;;;6220382;23;20161;-81
2022/10/04 05:40:12;;;;;;;23.67;10.52;;;5.20;99.90;;;;;;6220557;23;20374;-81
2022/10/04 05:42:44;;;;;;;25.23;12.13;;;5.40;99.90;;;;;;6221466;23;20603;-81
2022/10/04 05:45:24;;;;;;;22.02;12.90;;;5.80;99.90;;;;;;6244521;23;20153;-81
2022/10/04 05:47:52;;;;;;;29.23;12.13;;;5.60;99.90;;;;;;6242893;23;20177;-81
2022/10/04 05:50:33;;;;;;;28.38;12.70;;;5.70;99.90;;;;;;6220801;23;20165;-81
2022/10/04 05:53:14;;;;;;;23.50;12.10;;;5.80;99.90;;;;;;6243717;23;20141;-80
2022/10/04 05:55:57;;;;;;;27.95;12.30;;;5.90;99.90;;;;;;6220237;23;20125;-81
2022/10/04 05:58:24;;;;;;;23.77;12.10;;;;;;;;;;6239985;23;20224;-80
2022/10/04 06:01:20;;;;;;;16.33;11.18;;;5.60;99.90;;;;;;6215043;23;20136;-81
2022/10/04 06:04:01;;;;;;;46.30;12.73;;;5.70;99.90;;;;;;6215929;23;20601;-81
2022/10/04 06:07:11;;;;;;;49.67;13.55;;;5.80;99.90;;;;;;6215234;23;20144;-81
2022/10/04 06:09:54;;;;;;;84.25;16.27;;;5.50;99.90;;;;;;6215664;23;20243;-81
2022/10/04 06:12:48;;;;;;;39.72;12.90;;;5.70;99.90;;;;;;6217198;23;20638;-82
2022/10/04 06:15:51;;;;;;;60.92;14.05;;;5.90;99.90;;;;;;6217163;23;20157;-82
2022/10/04 06:18:55;;;;;;;24.65;12.43;;;6.20;99.90;;;;;;6216861;23;20144;-81
2022/10/04 06:21:28;;;;;;;142.52;18.40;;;6.20;99.90;;;;;;6154584;23;20164;-81
2022/10/04 06:24:13;;;;;;;67.05;13.07;;;6.10;99.90;;;;;;6216830;23;20149;-81
2022/10/04 06:26:48;;;;;;;68.35;13.85;;;6.30;99.90;;;;;;6215728;23;20607;-80
2022/10/04 06:29:19;;;;;;;112.07;16.40;;;6.60;99.90;;;;;;6215813;23;20184;-80
2022/10/04 06:34:20;;;;;;;252.40;25.55;;;;;;;;;;6244134;23;20190;-87
2022/10/04 06:37:08;;;;;;;139.18;15.35;;;6.70;99.90;;;;;;6246153;23;20136;-86
2022/10/04 06:40:05;;;;;;;80.43;14.05;;;6.80;99.90;;;;;;6241458;23;20152;-86
2022/10/04 06:43:06;;;;;;;79.28;12.30;;;6.90;99.90;;;;;;6238277;23;20646;-87
2022/10/04 06:45:32;;;;;;;93.55;15.18;;;;;;;;;;6245671;22;20124;-85
2022/10/04 06:48:01;;;;;;;100.10;13.23;;;7.30;99.90;;;;;;6251080;23;20199;-85
2022/10/04 06:50:40;;;;;;;96.82;14.48;;;7.30;99.90;;;;;;6252190;23;20431;-86
2022/10/04 06:53:23;;;;;;;28.00;11.85;;;7.30;99.90;;;;;;6247713;23;20249;-87
2022/10/04 06:56:25;;;;;;;22.85;12.13;;;7.20;99.90;;;;;;6258651;22;20139;-85
2022/10/04 06:59:22;;;;;;;68.43;14.48;;;7.20;99.90;;;;;;6247205;23;20677;-86
2022/10/04 07:02:05;;;;;;;31.27;11.25;;;7.30;99.90;;;;;;6246174;23;20160;-85
2022/10/04 07:04:31;;;;;;;20.33;10.25;;;;;;;;;;6249019;22;20136;-88
2022/10/04 07:07:22;;;;;;;19.00;11.57;;;7.70;99.90;;;;;;6246379;23;20191;-87
2022/10/04 07:09:46;;;;;;;16.52;10.98;;;8.00;99.90;;;;;;6241829;23;20390;-86
2022/10/04 07:12:15;;;;;;;17.98;10.70;;;8.10;99.90;;;;;;6242730;23;20163;-87
2022/10/04 07:14:49;;;;;;;17.17;10.68;;;8.20;99.90;;;;;;6236670;23;20159;-86
2022/10/04 07:17:23;;;;;;;32.25;11.93;;;8.10;99.90;;;;;;6242851;23;20491;-87
2022/10/04 07:19:51;;;;;;;27.67;11.25;;;8.00;99.90;;;;;;6245762;23;20145;-86
2022/10/04 07:22:28;;;;;;;16.73;11.25;;;8.00;99.90;;;;;;6237801;23;20168;-86
2022/10/04 07:25:06;;;;;;;38.88;11.15;;;8.10;99.90;;;;;;6241920;23;20137;-85
2022/10/04 07:30:49;;;;;;;15.57;10.63;;;8.60;99.90;;;;;;6246248;23;20163;-86
2022/10/04 07:33:20;;;;;;;18.65;11.40;;;8.90;99.90;;;;;;6240590;22;20336;-86
2022/10/04 07:35:51;;;;;;;11.48;8.70;;;9.80;99.90;;;;;;6240627;23;20544;-86
2022/10/04 07:38:27;;;;;;;18.50;10.73;;;10.20;99.90;;;;;;6246907;22;20192;-85
2022/10/04 07:41:13;;;;;;;13.55;9.55;;;10.50;99.90;;;;;;6247763;22;20132;-85
2022/10/04 07:43:54;;;;;;;14.43;9.00;;;11.10;99.90;;;;;;6248400;23;20157;-85
2022/10/04 07:46:45;;;;;;;14.63;9.40;;;11.50;99.90;;;;;;6246657;22;20195;-85
2022/10/04 07:49:16;;;;;;;12.20;9.05;;;11.00;99.90;;;;;;6248372;22;20176;-86
2022/10/04 07:52:09;;;;;;;11.98;7.43;;;10.80;99.90;;;;;;6249870;22;20148;-85
2022/10/04 07:54:59;;;;;;;11.57;8.35;;;11.00;99.90;;;;;;6248136;23;20133;-84
2022/10/04 07:58:18;;;;;;;11.75;7.93;;;11.40;99.90;;;;;;6238358;23;20176;-87
2022/10/04 08:01:03;;;;;;;12.30;7.15;;;12.00;99.90;;;;;;6181033;23;20158;-86
2022/10/04 08:03:54;;;;;;;10.65;8.18;;;12.00;99.90;;;;;;6252838;22;20180;-84
2022/10/04 08:06:36;;;;;;;10.00;7.47;;;12.00;99.90;;;;;;6255383;22;20137;-84
2022/10/04 08:09:05;;;;;;;11.52;7.75;;;12.10;99.90;;;;;;6249041;22;20167;-83
2022/10/04 08:11:49;;;;;;;8.05;6.80;;;12.80;99.90;;;;;;6246498;23;20877;-87
2022/10/04 08:14:39;;;;;;;13.35;7.35;;;13.90;99.90;;;;;;6250880;23;20141;-87
2022/10/04 08:17:34;;;;;;;8.02;5.85;;;15.80;99.90;;;;;;6244149;23;20183;-87
2022/10/04 08:20:16;;;;;;;7.70;5.60;;;16.80;99.90;;;;;;6258282;22;20136;-86
2022/10/04 08:22:42;;;;;;;8.60;5.23;;;;;;;;;;6255716;22;20378;-86
2022/10/04 08:25:38;;;;;;;9.63;5.17;;;18.60;99.90;;;;;;6257601;22;20466;-86
2022/10/04 08:31:09;;;;;;;7.13;5.70;;;17.60;99.90;;;;;;6252731;23;20378;-87
2022/10/04 08:34:06;;;;;;;10.37;6.00;;;17.60;99.90;;;;;;6250444;22;20528;-87
2022/10/04 08:36:45;;;;;;;11.07;7.03;;;18.10;99.90;;;;;;6243764;23;20670;-88
2022/10/04 08:39:24;;;;;;;12.40;5.77;;;19.00;99.90;;;;;;6244523;23;20374;-86
2022/10/04 08:41:52;;;;;;;7.13;5.33;;;;;;;;;;6247189;23;20367;-85
2022/10/04 08:44:49;;;;;;;8.67;3.80;;;20.80;99.90;;;;;;6243569;23;20372;-88
2022/10/04 08:47:37;;;;;;;9.93;4.20;;;21.00;99.90;;;;;;6244882;22;20478;-86
2022/10/04 08:50:33;;;;;;;6.13;3.93;;;20.50;99.90;;;;;;6242470;22;20356;-86
2022/10/04 08:53:23;;;;;;;8.03;3.80;;;20.00;99.90;;;;;;6242348;23;20905;-85
2022/10/04 08:56:22;;;;;;;4.10;3.30;;;18.70;99.90;;;;;;6241738;23;20363;-85
2022/10/04 08:59:22;;;;;;;5.23;3.37;;;18.70;99.90;;;;;;6245606;23;20391;-86
2022/10/04 09:02:12;;;;;;;5.57;3.67;;;18.00;99.90;;;;;;6243137;23;20380;-86
2022/10/04 09:05:13;;;;;;;7.73;3.60;;;17.90;99.90;;;;;;6229951;23;20395;-86
2022/10/04 09:08:04;;;;;;;3.90;3.20;;;18.40;99.90;;;;;;6245027;23;21016;-87
2022/10/04 09:10:46;;;;;;;6.23;2.77;;;17.90;99.90;;;;;;6247803;22;20414;-86
2022/10/04 09:13:37;;;;;;;6.43;2.77;;;17.50;99.90;;;;;;6239062;22;21100;-86
2022/10/04 09:16:41;;;;;;;5.07;3.03;;;17.70;99.90;;;;;;6242039;23;20382;-85
2022/10/04 09:19:20;;;;;;;7.07;2.80;;;18.00;99.90;;;;;;6237563;23;20407;-85
2022/10/04 09:21:46;;;;;;;5.03;3.40;;;;;;;;;;6242625;23;20364;-84
2022/10/04 09:24:12;;;;;;;4.03;3.20;;;;;;;;;;6239567;23;20367;-86
2022/10/04 09:26:43;;;;;;;6.50;3.00;;;17.70;99.90;;;;;;6248459;23;20360;-84
2022/10/04 09:29:38;;;;;;;8.60;3.40;;;17.10;99.90;;;;;;6254784;22;20978;-85
2022/10/04 09:32:47;;;;;;;7.13;3.67;;;17.70;99.90;;;;;;6224509;23;20421;-86
2022/10/04 09:35:24;;;;;;;8.70;2.90;;;17.50;99.90;;;;;;6235311;22;20356;-85
2022/10/04 09:38:08;;;;;;;8.27;2.87;;;17.30;99.90;;;;;;6247520;23;20450;-85
2022/10/04 09:40:34;;;;;;;6.63;3.03;;;;;;;;;;6247771;22;20531;-84
2022/10/04 09:43:28;;;;;;;3.07;2.50;;;17.60;99.90;;;;;;6249746;23;21176;-85
2022/10/04 09:46:30;;;;;;;6.70;3.40;;;17.60;99.90;;;;;;6247943;22;20455;-86
2022/10/04 09:49:36;;;;;;;7.13;2.87;;;18.10;99.90;;;;;;6247454;22;20419;-87
2022/10/04 09:52:05;;;;;;;3.87;2.97;;;18.20;99.90;;;;;;6253514;23;20398;-86
2022/10/04 09:54:44;;;;;;;3.27;2.67;;;17.70;99.90;;;;;;6250957;23;20359;-86
2022/10/04 09:57:29;;;;;;;5.03;3.03;;;17.60;99.90;;;;;;6248120;22;20394;-85
2022/10/04 10:00:07;;;;;;;6.10;2.80;;;17.60;99.90;;;;;;6243101;23;20449;-86
2022/10/04 10:03:01;;;;;;;18.80;3.50;;;17.50;99.90;;;;;;6241067;23;20451;-86
2022/10/04 10:05:42;;;;;;;7.30;2.97;;;17.30;99.90;;;;;;6243313;23;20931;-86
2022/10/04 10:08:19;;;;;;;9.37;2.93;;;17.10;99.90;;;;;;6245591;23;20423;-86
2022/10/04 10:14:07;;;;;;;11.20;3.50;;;17.00;99.90;;;;;;6238333;23;20347;-85
2022/10/04 10:16:59;;;;;;;3.37;2.80;;;17.00;99.90;;;;;;6240620;23;20598;-85
2022/10/04 10:20:01;;;;;;;8.20;3.67;;;17.00;99.90;;;;;;6242378;22;20416;-87
2022/10/04 10:22:44;;;;;;;9.30;4.20;;;17.00;99.90;;;;;;6242225;23;20391;-86
2022/10/04 10:25:25;;;;;;;7.63;2.80;;;17.30;99.90;;;;;;6238229;22;20348;-85
2022/10/04 10:28:10;;;;;;;5.90;3.00;;;17.50;99.90;;;;;;6243120;22;20437;-85
2022/10/04 10:31:02;;;;;;;4.10;2.50;;;17.20;99.90;;;;;;6244305;23;20380;-85
2022/10/04 10:34:04;;;;;;;5.83;3.00;;;16.90;99.90;;;;;;6238583;23;20422;-86
2022/10/04 10:36:48;;;;;;;5.77;2.97;;;17.00;99.90;;;;;;6240169;23;20374;-85
2022/10/04 10:39:43;;;;;;;4.90;3.33;;;16.70;99.90;;;;;;6240390;22;20356;-84
2022/10/04 10:42:10;;;;;;;4.00;2.57;;;;;;;;;;6241484;22;20356;-85
2022/10/04 10:44:50;;;;;;;7.23;3.50;;;17.10;99.90;;;;;;6242163;22;20371;-86
2022/10/04 10:47:33;;;;;;;4.40;2.80;;;17.10;99.90;;;;;;6244501;23;20403;-84
2022/10/04 10:50:12;;;;;;;8.00;3.13;;;17.40;99.90;;;;;;6248526;22;20327;-83
2022/10/04 10:53:19;;;;;;;10.50;3.30;;;17.30;99.90;;;;;;6257929;22;20374;-85
2022/10/04 10:56:18;;;;;;;6.93;2.90;;;17.30;99.90;;;;;;6248034;22;20356;-85
2022/10/04 10:59:07;;;;;;;4.90;2.70;;;17.50;99.90;;;;;;6241649;23;20418;-85
2022/10/04 11:02:05;;;;;;;5.47;3.17;;;17.50;99.90;;;;;;6252586;23;20771;-84
2022/10/04 11:05:07;;;;;;;9.37;3.67;;;17.50;99.90;;;;;;6259112;22;21056;-84
2022/10/04 11:08:11;;;;;;;6.80;3.10;;;17.50;99.90;;;;;;6253046;23;20438;-85
2022/10/04 11:11:02;;;;;;;9.30;2.90;;;17.50;99.90;;;;;;6251979;23;20397;-85
2022/10/04 11:13:58;;;;;;;8.30;3.20;;;17.60;99.90;;;;;;6251350;22;20358;-85
2022/10/04 11:16:33;;;;;;;5.33;3.10;;;;;;;;;;6254910;23;20429;-86
2022/10/04 11:19:21;;;;;;;6.87;3.63;;;17.40;99.90;;;;;;6252944;22;20446;-86
2022/10/04 11:22:08;;;;;;;6.73;3.40;;;17.60;99.90;;;;;;6252243;23;20591;-86
2022/10/04 11:24:34;;;;;;;4.20;2.97;;;;;;;;;;6248274;23;20442;-86
2022/10/04 11:27:29;;;;;;;14.83;3.70;;;18.30;99.90;;;;;;6246001;23;20426;-86
2022/10/04 11:30:25;;;;;;;4.37;2.80;;;18.40;99.90;;;;;;6247718;22;20815;-86
2022/10/04 11:33:20;;;;;;;4.10;3.17;;;18.40;99.90;;;;;;6244918;22;20403;-87
2022/10/04 11:35:54;;;;;;;5.17;3.67;;;18.50;99.90;;;;;;6244572;23;20429;-86
2022/10/04 11:38:47;;;;;;;7.13;2.70;;;18.60;99.90;;;;;;6243515;23;20394;-85
2022/10/04 11:41:15;;;;;;;6.13;3.30;;;;;;;;;;6244463;23;20458;-86
2022/10/04 11:43:41;;;;;;;5.70;3.30;;;;;;;;;;6249660;22;20352;-85
2022/10/04 11:46:35;;;;;;;6.93;3.20;;;19.00;99.90;;;;;;6249122;23;20352;-86
2022/10/04 11:49:28;;;;;;;5.00;3.00;;;18.90;99.90;;;;;;6247616;23;20411;-86
2022/10/04 11:52:21;;;;;;;8.63;3.33;;;18.80;99.90;;;;;;6247119;23;20371;-85
2022/10/04 11:55:10;;;;;;;6.40;2.80;;;18.90;99.90;;;;;;6248984;22;20677;-86
2022/10/04 11:57:56;;;;;;;6.13;3.23;;;18.90;99.90;;;;;;6247237;22;20400;-86
2022/10/04 12:00:23;;;;;;;5.73;2.40;;;19.10;99.90;;;;;;6246036;23;20861;-86
2022/10/04 12:03:26;;;;;;;8.07;2.97;;;19.10;99.90;;;;;;6246925;23;20387;-85
2022/10/04 12:06:07;;;;;;;4.33;2.93;;;19.20;99.90;;;;;;6249709;23;20437;-86
2022/10/04 12:08:45;;;;;;;8.60;2.63;;;19.40;99.90;;;;;;6249262;23;20411;-85
2022/10/04 12:12:35;;;;;;;4.90;3.97;;;20.00;99.90;;;;;;6251091;22;20352;-85
2022/10/04 12:14:25;;;;;;;4.80;2.87;;;19.50;99.90;;;;;;6255477;23;20391;-84
2022/10/04 12:17:21;;;;;;;4.10;2.50;;;19.60;99.90;;;;;;6262917;22;20595;-85
2022/10/04 12:20:17;;;;;;;12.83;2.93;;;19.30;99.90;;;;;;6252212;23;20370;-85
2022/10/04 12:22:43;;;;;;;7.30;2.70;;;;;;;;;;6248262;23;20352;-85
2022/10/04 12:25:52;;;;;;;12.70;2.47;;;18.70;99.90;;;;;;6246691;23;20372;-86
2022/10/04 12:28:46;;;;;;;4.17;2.23;;;19.30;99.90;;;;;;6223425;23;20418;-85
2022/10/04 12:31:35;;;;;;;3.07;2.30;;;19.20;99.90;;;;;;6234902;23;20714;-85
2022/10/04 12:34:13;;;;;;;9.40;2.50;;;19.30;99.90;;;;;;6242062;22;20388;-85
2022/10/04 12:37:15;;;;;;;7.03;2.23;;;19.20;99.90;;;;;;6243049;23;20414;-85
2022/10/04 12:39:41;;;;;;;9.00;2.50;;;;;;;;;;6254494;22;20400;-84
2022/10/04 12:42:24;;;;;;;6.67;2.17;;;19.10;99.90;;;;;;6253014;23;20747;-86
2022/10/04 12:45:08;;;;;;;6.33;2.90;;;18.90;99.90;;;;;;6245370;23;20360;-86
2022/10/04 12:47:54;;;;;;;5.13;3.00;;;19.00;99.90;;;;;;6237414;23;21171;-84
2022/10/04 12:50:48;;;;;;;7.40;2.40;;;19.00;99.90;;;;;;6241198;23;20371;-84
2022/10/04 12:53:20;;;;;;;10.13;2.63;;;19.30;99.90;;;;;;6238099;22;20390;-85
2022/10/04 12:56:07;;;;;;;5.93;2.77;;;19.40;99.90;;;;;;6241532;23;20850;-85
2022/10/04 12:59:19;;;;;;;4.27;2.63;;;19.50;99.90;;;;;;6243600;23;20392;-83
2022/10/04 13:01:45;;;;;;;8.63;3.00;;;;;;;;;;6161637;23;20484;-84
2022/10/04 13:04:38;;;;;;;9.07;2.43;;;19.70;99.90;;;;;;6240914;23;20348;-85
2022/10/04 13:07:04;;;;;;;3.73;2.27;;;;;;;;;;6243584;22;21273;-86
2022/10/04 13:10:00;;;;;;;5.93;2.47;;;19.70;99.90;;;;;;6246497;23;20431;-87
2022/10/04 13:12:26;;;;;;;3.73;2.50;;;;;;;;;;6242618;22;20355;-88
2022/10/04 13:15:36;;;;;;;5.43;2.03;;;20.00;99.90;;;;;;6252708;23;20399;-84
2022/10/04 13:18:28;;;;;;;9.73;2.53;;;19.90;99.90;;;;;;6248109;22;20927;-85
2022/10/04 13:20:53;;;;;;;4.73;2.67;;;;;;;;;;6246505;22;20402;-85
2022/10/04 13:23:36;;;;;;;2.60;2.20;;;19.80;99.90;;;;;;6238087;23;20873;-86
2022/10/04 13:26:02;;;;;;;4.00;2.37;;;;;;;;;;6246559;23;20470;-86
2022/10/04 13:28:38;;;;;;;4.90;2.53;;;19.80;99.90;;;;;;6243719;23;20521;-86
2022/10/04 13:31:22;;;;;;;5.27;2.50;;;19.70;99.90;;;;;;6244310;22;20841;-84
2022/10/04 13:34:13;;;;;;;3.73;2.17;;;19.60;99.90;;;;;;6242594;22;20633;-85
2022/10/04 13:36:57;;;;;;;5.47;2.43;;;19.50;99.90;;;;;;6243160;23;20383;-85
2022/10/04 13:39:45;;;;;;;8.70;2.53;;;19.60;99.90;;;;;;6259501;22;20351;-83
2022/10/04 13:42:44;;;;;;;6.20;2.53;;;19.40;99.90;;;;;;6254000;23;20339;-85
2022/10/04 13:45:36;;;;;;;9.83;2.80;;;19.50;99.90;;;;;;6258016;22;20386;-83
2022/10/04 13:48:29;;;;;;;3.97;2.57;;;19.40;99.90;;;;;;6256029;22;20427;-83
2022/10/04 13:51:14;;;;;;;2.70;2.23;;;19.30;99.90;;;;;;6251987;22;20392;-83
2022/10/04 13:56:36;;;;;;;4.80;2.50;;;19.30;99.90;;;;;;6251700;23;20360;-84
2022/10/04 13:59:23;;;;;;;4.50;2.60;;;19.30;99.90;;;;;;6246923;22;20383;-83
2022/10/04 14:02:26;;;;;;;5.30;2.80;;;19.30;99.90;;;;;;6241098;22;20351;-82
2022/10/04 14:04:53;;;;;;;4.57;3.20;;;;;;;;;;6253533;23;20356;-85
2022/10/04 14:07:21;;;;;;;5.87;2.23;;;19.10;99.90;;;;;;6249519;23;20400;-85
2022/10/04 14:10:21;;;;;;;2.90;2.50;;;19.10;99.90;;;;;;6244751;23;20384;-86
2022/10/04 14:12:47;;;;;;;5.83;2.63;;;;;;;;;;6245122;22;20364;-85
2022/10/04 14:15:41;;;;;;;4.33;2.67;;;19.20;99.90;;;;;;6247502;23;20833;-86